Aeroporto :
LOGIN :

Iscrizione | Disclaimer

   EN    FR    IT 

 










Sommario :    VFR   VFR Marginale   IFR   IFR Intensivo   IFR Molto Intensivo
Visibilità : 
Base nubi : 
>= 8 km
>= 3000ft
5 / 8 km
1000 / 3000 ft
1500m / 5 km
500 / 1000 ft
800 / 1500m
200 / 500 ft
< 800m
< 200 ft
Simboli :   Temporali  Nebbia  Neve Forte  Precipitazioni Forti  Vento > 20 kt
SIGMETs :   Varie  Temporali  Ghiacco  Turbolenza  Onda orograficha  Ceneri Vulcaniche






- Altitudine del aeroporto : 1535 ft
- Codice IATA : OUD


GMFO - Ouja Angads

ULTIMO METAR :
  • 251230Z 29016KT CAVOK 22/M01 Q1023 NOSIG

METARs OBSOLETI :
  • 251200Z 26010KT 220V290 CAVOK 21/M01 Q1024 NOSIG
  • 251130Z 24012KT CAVOK 21/01 Q1024 NOSIG
  • 251100Z 23011KT 190V250 CAVOK 20/03 Q1024 NOSIG
  • 251030Z 22013KT CAVOK 19/03 Q1024 NOSIG
  • 251000Z 23015KT CAVOK 18/02 Q1024 NOSIG

TAF TAF GMFO
Valido dal 25 a 12 ore il 26 a 18 ore UTC


251100Z 2512/2618 33013KT CAVOK
TEMPO 2521/2608 22007KT



MetMap, La meteo Aeronautica in un colpo d'occhio ! - Copyright ORBIFLY Dicembre 2007 - Disclaimer

ORBIFLY MET'MAP TEAM :

Programmazione e sviluppo : Alexandra Zaïnal
Concezione : Baudouin d'Aumeries
Aiuto per la programmazione : Marc-Olivier Méhu
Supporto tecnico e logistico : Manuel Goepfert
Aiuto per la traduzione : Arnaldo La Scala

Contatto : metmap@orbifly.com




FONTI E CREDITI :

   NOAA